createdAt,value
2023-04-02T00:01:07.294Z,98635.19
2023-04-02T00:03:44.642Z,98625.91
2023-04-02T00:06:45.169Z,98640.88
2023-04-02T00:09:14.497Z,98643.53
2023-04-02T00:11:49.915Z,98612.38
2023-04-02T00:14:36.127Z,98651.84
2023-04-02T00:17:07.655Z,98667.78
2023-04-02T00:20:04.812Z,98624.63
2023-04-02T00:27:14.564Z,98634.56
2023-04-02T00:32:35.882Z,98667.69
2023-04-02T00:35:05.677Z,98642.50
2023-04-02T00:37:40.617Z,98648.78
2023-04-02T00:40:31.887Z,98635.84
2023-04-02T00:43:04.732Z,98644.16
2023-04-02T00:45:37.639Z,98676.00
2023-04-02T00:48:31.116Z,98657.75
2023-04-02T00:51:52.576Z,98666.06
2023-04-02T00:54:23.374Z,98693.97
2023-04-02T00:56:59.255Z,98656.78
2023-04-02T00:59:44.813Z,98640.88
2023-04-02T02:30:56.656Z,98675.34
2023-04-02T02:33:29.504Z,98662.91
2023-04-02T02:36:06.423Z,98684.94
2023-04-02T02:38:46.122Z,98686.78
2023-04-02T02:41:36.187Z,98691.91
2023-04-02T02:44:10.641Z,98686.97
2023-04-02T02:46:57.377Z,98687.53
2023-04-02T02:49:30.379Z,98670.59
2023-04-02T02:52:09.618Z,98683.16
2023-04-02T02:54:50.791Z,98652.72
2023-04-02T02:57:28.231Z,98682.59
2023-04-02T03:00:00.646Z,98689.97
2023-04-02T03:02:32.029Z,98654.66
2023-04-02T03:05:04.077Z,98660.94
2023-04-02T03:07:33.034Z,98674.25
2023-04-02T03:10:25.648Z,98684.56
2023-04-02T03:13:09.692Z,98696.63
2023-04-02T03:15:48.577Z,98696.03
2023-04-02T03:18:43.282Z,98705.63
2023-04-02T03:21:22.751Z,98713.84
2023-04-02T03:23:56.603Z,98710.22
2023-04-02T03:26:38.848Z,98711.84
2023-04-02T03:29:27.761Z,98699.81
2023-04-02T03:32:08.759Z,98708.25
2023-04-02T03:35:04.891Z,98717.59
2023-04-02T03:37:43.484Z,98713.44
2023-04-02T03:40:20.812Z,98694.38
2023-04-02T03:42:59.976Z,98715.13
2023-04-02T03:48:30.149Z,98706.84
2023-04-02T03:51:02.250Z,98715.94
2023-04-02T03:53:32.408Z,98703.19
2023-04-02T03:56:02.723Z,98689.88
2023-04-02T03:58:55.309Z,98705.09
2023-04-02T04:01:37.764Z,98707.44
2023-04-02T04:04:15.517Z,98716.75
2023-04-02T04:06:45.631Z,98716.84
2023-04-02T04:09:40.203Z,98715.00
2023-04-02T04:12:29.465Z,98707.75
2023-04-02T04:15:33.297Z,98710.00
2023-04-02T04:18:47.022Z,98718.94
2023-04-02T04:21:30.293Z,98698.22
2023-04-02T04:27:21.920Z,98721.28
2023-04-02T04:30:25.763Z,98728.94
2023-04-02T04:35:52.197Z,98739.41
2023-04-02T04:41:26.997Z,98743.56
2023-04-02T04:44:07.244Z,98725.97
2023-04-02T04:46:45.076Z,98748.91
2023-04-02T04:49:25.735Z,98749.38
2023-04-02T04:52:08.080Z,98738.94
2023-04-02T04:54:39.260Z,98744.88
2023-04-02T04:57:31.274Z,98730.28
2023-04-02T05:00:20.222Z,98749.53
2023-04-02T05:02:50.959Z,98750.50
2023-04-02T05:08:23.033Z,98756.25
2023-04-02T05:10:56.369Z,98751.84
2023-04-02T05:13:36.338Z,98750.22
2023-04-02T05:16:28.168Z,98758.50
2023-04-02T05:19:19.235Z,98754.53
2023-04-02T05:21:55.823Z,98761.09
2023-04-02T05:24:44.899Z,98753.91
2023-04-02T05:27:29.511Z,98749.34
2023-04-02T05:30:05.507Z,98770.22
2023-04-02T05:32:37.402Z,98779.50
2023-04-02T05:35:06.779Z,98782.69
2023-04-02T05:37:39.997Z,98779.88
2023-04-02T05:40:27.704Z,98775.84
2023-04-02T05:42:57.352Z,98775.53
2023-04-02T05:45:41.384Z,98772.56
2023-04-02T05:48:37.113Z,98778.22
2023-04-02T05:51:08.416Z,98782.88
2023-04-02T05:53:50.155Z,98785.72
2023-04-02T05:56:33.393Z,98768.28
2023-04-02T05:59:23.905Z,98777.69
2023-04-02T06:02:00.669Z,98771.38
2023-04-02T06:04:54.880Z,98786.19
2023-04-02T06:08:02.463Z,98786.78
2023-04-02T06:10:42.126Z,98766.91
2023-04-02T06:13:16.474Z,98777.56
2023-04-02T06:15:47.185Z,98774.19
2023-04-02T06:18:25.072Z,98779.59
2023-04-02T06:20:53.718Z,98773.72
2023-04-02T06:23:39.040Z,98788.00
2023-04-02T06:26:19.491Z,98781.13
2023-04-02T06:29:18.848Z,98782.28
2023-04-02T06:31:54.164Z,98783.16
2023-04-02T06:34:28.105Z,98768.84
2023-04-02T06:37:04.020Z,98777.09
2023-04-02T06:39:33.471Z,98776.22
2023-04-02T06:42:06.575Z,98773.56
2023-04-02T06:44:57.194Z,98786.53
2023-04-02T06:47:47.280Z,98765.84
2023-04-02T06:50:28.009Z,98771.94
2023-04-02T06:53:00.163Z,98792.91
2023-04-02T06:55:33.363Z,98770.63
2023-04-02T06:58:00.983Z,98772.00
2023-04-02T07:00:38.981Z,98788.28
2023-04-02T07:03:21.795Z,98777.09
2023-04-02T07:05:49.361Z,98774.66
2023-04-02T07:08:16.754Z,98791.78
2023-04-02T07:10:44.123Z,98793.44
2023-04-02T07:13:24.970Z,98791.44
2023-04-02T07:15:55.181Z,98801.38
2023-04-02T07:18:33.925Z,98794.03
2023-04-02T07:21:04.530Z,98785.28
2023-04-02T07:23:31.568Z,98808.50
2023-04-02T07:25:59.608Z,98803.31
2023-04-02T07:28:26.559Z,98803.63
2023-04-02T07:30:54.829Z,98808.41
2023-04-02T07:33:25.662Z,98804.16
2023-04-02T07:35:55.095Z,98798.25
2023-04-02T07:38:22.205Z,98804.56
2023-04-02T07:40:49.811Z,98809.13
2023-04-02T07:43:16.798Z,98810.56
2023-04-02T07:45:43.933Z,98815.47
2023-04-02T07:48:13.090Z,98820.13
2023-04-02T07:50:40.314Z,98832.31
2023-04-02T07:53:08.955Z,98815.09
2023-04-02T07:55:36.382Z,98829.09
2023-04-02T07:58:04.274Z,98826.53
2023-04-02T08:00:31.367Z,98819.91
2023-04-02T08:02:58.633Z,98836.78
2023-04-02T08:05:26.522Z,98819.47
2023-04-02T08:07:55.654Z,98827.63
2023-04-02T08:10:23.323Z,98819.81
2023-04-02T08:12:50.665Z,98819.63
2023-04-02T08:15:18.427Z,98805.84
2023-04-02T08:17:46.486Z,98820.59
2023-04-02T08:20:22.456Z,98822.59
2023-04-02T08:22:50.725Z,98816.66
2023-04-02T08:25:18.330Z,98828.06
2023-04-02T08:27:48.313Z,98820.69
2023-04-02T08:30:17.644Z,98827.41
2023-04-02T08:32:44.712Z,98815.88
2023-04-02T08:35:14.876Z,98832.09
2023-04-02T08:37:43.057Z,98837.91
2023-04-02T08:40:31.204Z,98834.94
2023-04-02T08:43:01.133Z,98835.56
2023-04-02T08:45:46.468Z,98834.22
2023-04-02T08:48:15.851Z,98826.22
2023-04-02T08:50:45.480Z,98823.53
2023-04-02T08:53:28.128Z,98830.47
2023-04-02T08:56:06.157Z,98813.22
2023-04-02T08:58:47.096Z,98830.75
2023-04-02T09:01:16.895Z,98816.09
2023-04-02T09:03:47.632Z,98828.91
2023-04-02T09:06:18.890Z,98811.88
2023-04-02T09:08:49.016Z,98819.34
2023-04-02T09:11:27.875Z,98829.19
2023-04-02T09:13:57.727Z,98829.72
2023-04-02T09:16:56.244Z,98834.91
2023-04-02T09:19:26.709Z,98830.59
2023-04-02T09:22:06.493Z,98821.13
2023-04-02T09:24:34.357Z,98812.56
2023-04-02T09:27:01.959Z,98813.00
2023-04-02T09:29:40.083Z,98829.25
2023-04-02T09:32:12.962Z,98826.13
2023-04-02T09:34:39.988Z,98834.78
2023-04-02T09:37:15.544Z,98827.34
2023-04-02T09:39:43.205Z,98838.94
2023-04-02T09:42:34.401Z,98835.44
2023-04-02T09:45:19.560Z,98834.06
2023-04-02T09:47:47.054Z,98829.47
2023-04-02T09:50:34.196Z,98836.53
2023-04-02T09:53:31.671Z,98824.59
2023-04-02T09:56:17.239Z,98833.50
2023-04-02T09:58:46.166Z,98839.13
2023-04-02T10:01:28.436Z,98835.00
2023-04-02T10:03:56.653Z,98821.09
2023-04-02T10:06:23.995Z,98828.09
2023-04-02T10:08:51.815Z,98819.53
2023-04-02T10:11:43.670Z,98840.69
2023-04-02T10:14:30.572Z,98818.69
2023-04-02T10:17:02.301Z,98843.16
2023-04-02T10:19:34.719Z,98830.16
2023-04-02T10:22:13.539Z,98824.97
2023-04-02T10:24:40.838Z,98827.91
2023-04-02T10:27:17.919Z,98834.25
2023-04-02T10:29:45.088Z,98824.88
2023-04-02T10:32:16.353Z,98834.81
2023-04-02T10:34:46.214Z,98826.09
2023-04-02T10:37:45.825Z,98831.56
2023-04-02T10:40:27.127Z,98827.66
2023-04-02T10:43:00.261Z,98815.09
2023-04-02T10:45:30.753Z,98835.59
2023-04-02T10:48:27.037Z,98828.53
2023-04-02T10:51:27.684Z,98817.63
2023-04-02T10:54:06.610Z,98822.75
2023-04-02T10:56:44.065Z,98824.97
2023-04-02T10:59:47.806Z,98833.28
2023-04-02T11:02:29.864Z,98822.00
2023-04-02T11:05:02.106Z,98816.78
2023-04-02T11:07:32.517Z,98832.31
2023-04-02T11:10:01.037Z,98824.28
2023-04-02T11:12:50.789Z,98817.94
2023-04-02T11:15:20.343Z,98817.06
2023-04-02T11:17:48.493Z,98813.00
2023-04-02T11:20:44.150Z,98806.34
2023-04-02T11:23:14.092Z,98814.94
2023-04-02T11:25:43.286Z,98802.34
2023-04-02T11:28:32.028Z,98818.47
2023-04-02T11:30:59.420Z,98809.72
2023-04-02T11:33:38.250Z,98824.22
2023-04-02T11:36:44.733Z,98821.81
2023-04-02T11:39:17.289Z,98827.81
2023-04-02T11:42:03.034Z,98815.63
2023-04-02T11:44:30.219Z,98803.16
2023-04-02T11:47:17.571Z,98821.75
2023-04-02T11:50:05.335Z,98816.69
2023-04-02T11:52:36.970Z,98814.59
2023-04-02T11:55:20.573Z,98798.03
2023-04-02T11:57:59.382Z,98797.13
2023-04-02T12:00:48.605Z,98817.31
2023-04-02T12:03:30.567Z,98824.31
2023-04-02T12:06:47.305Z,98794.94
2023-04-02T12:09:27.468Z,98816.88
2023-04-02T12:11:58.423Z,98824.16
2023-04-02T12:14:43.563Z,98823.13
2023-04-02T12:17:38.560Z,98816.97
2023-04-02T12:20:09.896Z,98822.00
2023-04-02T12:22:47.818Z,98826.75
2023-04-02T12:25:20.952Z,98824.88
2023-04-02T12:27:48.579Z,98816.75
2023-04-02T12:30:21.687Z,98811.00
2023-04-02T12:32:49.758Z,98819.09
2023-04-02T12:35:36.657Z,98826.16
2023-04-02T12:38:03.715Z,98819.84
2023-04-02T12:40:30.915Z,98811.47
2023-04-02T12:42:57.920Z,98816.16
2023-04-02T12:45:29.574Z,98825.91
2023-04-02T12:47:58.974Z,98819.56
2023-04-02T12:50:26.389Z,98802.56
2023-04-02T12:52:55.878Z,98813.75
2023-04-02T12:55:25.736Z,98812.94
2023-04-02T12:58:00.105Z,98826.00
2023-04-02T13:00:30.024Z,98800.38
2023-04-02T13:03:21.637Z,98823.28
2023-04-02T13:05:54.568Z,98816.25
2023-04-02T13:08:41.270Z,98816.28
2023-04-02T13:11:08.544Z,98810.03
2023-04-02T13:14:02.737Z,98818.94
2023-04-02T13:16:35.896Z,98808.50
2023-04-02T13:19:23.773Z,98834.34
2023-04-02T13:21:52.026Z,98820.72
2023-04-02T13:24:21.867Z,98822.72
2023-04-02T13:26:49.932Z,98814.47
2023-04-02T13:29:24.421Z,98828.00
2023-04-02T13:31:54.318Z,98829.25
2023-04-02T13:34:21.812Z,98827.56
2023-04-02T13:36:49.084Z,98813.91
2023-04-02T13:39:16.549Z,98830.47
2023-04-02T13:41:51.406Z,98830.09
2023-04-02T13:44:25.093Z,98813.34
2023-04-02T13:46:53.520Z,98829.28
2023-04-02T13:49:21.648Z,98834.88
2023-04-02T13:51:54.229Z,98816.47
2023-04-02T13:54:29.736Z,98829.75
2023-04-02T13:56:57.452Z,98840.69
2023-04-02T13:59:26.184Z,98838.22
2023-04-02T14:02:07.314Z,98839.63
2023-04-02T14:04:43.752Z,98831.59
2023-04-02T14:07:42.560Z,98835.47
2023-04-02T14:10:18.385Z,98818.16
2023-04-02T14:13:17.601Z,98834.72
2023-04-02T14:15:54.762Z,98838.38
2023-04-02T14:18:42.694Z,98822.94
2023-04-02T14:21:21.432Z,98830.19
2023-04-02T14:24:09.895Z,98827.72
2023-04-02T14:27:04.986Z,98840.47
2023-04-02T14:29:41.551Z,98836.75
2023-04-02T14:32:15.664Z,98836.94
2023-04-02T14:34:45.362Z,98833.00
2023-04-02T14:37:27.719Z,98832.19
2023-04-02T14:40:33.120Z,98838.59
2023-04-02T14:43:03.222Z,98841.06
2023-04-02T14:45:51.843Z,98833.00
2023-04-02T14:48:38.201Z,98839.19
2023-04-02T14:51:14.805Z,98833.59
2023-04-02T14:54:06.206Z,98834.88
2023-04-02T14:56:39.864Z,98842.91
2023-04-02T14:59:28.396Z,98841.44
2023-04-02T15:02:14.298Z,98839.56
2023-04-02T15:04:46.420Z,98836.06
2023-04-02T15:07:25.851Z,98834.25
2023-04-02T15:10:07.120Z,98817.88
2023-04-02T15:12:37.298Z,98833.16
2023-04-02T15:15:40.411Z,98832.75
2023-04-02T15:18:17.506Z,98830.84
2023-04-02T15:21:17.042Z,98835.16
2023-04-02T15:24:16.956Z,98843.63
2023-04-02T15:27:24.458Z,98839.47
2023-04-02T15:30:07.684Z,98839.31
2023-04-02T15:32:35.477Z,98837.25
2023-04-02T15:35:09.429Z,98831.69
2023-04-02T15:38:15.718Z,98838.88
2023-04-02T15:40:57.523Z,98840.75
2023-04-02T15:43:30.588Z,98826.72
2023-04-02T15:46:16.904Z,98825.44
2023-04-02T15:49:13.114Z,98836.56
2023-04-02T15:52:12.383Z,98837.81
2023-04-02T15:54:42.426Z,98839.84
2023-04-02T15:57:58.799Z,98844.34
2023-04-02T16:01:13.865Z,98833.19
2023-04-02T16:03:41.673Z,98849.25
2023-04-02T16:06:31.318Z,98838.31
2023-04-02T16:09:21.916Z,98853.00
2023-04-02T16:12:12.457Z,98845.97
2023-04-02T16:14:41.525Z,98839.72
2023-04-02T16:17:26.508Z,98873.19
2023-04-02T16:20:03.691Z,98861.97
2023-04-02T16:22:34.269Z,98857.06
2023-04-02T16:25:13.453Z,98858.06
2023-04-02T16:27:45.755Z,98879.38
2023-04-02T16:30:19.035Z,98874.59
2023-04-02T16:33:07.893Z,98884.66
2023-04-02T16:35:50.115Z,98887.75
2023-04-02T16:38:45.090Z,98882.16
2023-04-02T16:41:15.038Z,98882.91
2023-04-02T16:43:59.889Z,98887.91
2023-04-02T16:47:04.355Z,98885.22
2023-04-02T16:49:49.835Z,98895.44
2023-04-02T16:52:50.994Z,98892.09
2023-04-02T16:55:41.254Z,98887.72
2023-04-02T16:58:11.663Z,98891.41
2023-04-02T21:28:49.421Z,98941.13
2023-04-02T21:42:36.066Z,98964.91
2023-04-02T21:53:36.416Z,98973.28
2023-04-02T22:31:49.168Z,98961.09
2023-04-02T22:42:42.079Z,98990.69
2023-04-02T22:48:02.809Z,98982.22
2023-04-02T23:38:20.989Z,98964.75
2023-04-02T23:49:15.617Z,98946.16
